sensor_id;sensor_type;location;lat;lon;timestamp;P1;durP1;ratioP1;P2;durP2;ratioP2
209;SDS011;90;48.810;9.120;2023-02-18T00:01:23;2.43;;;2.23;;
209;SDS011;90;48.810;9.120;2023-02-18T00:03:50;2.50;;;2.10;;
209;SDS011;90;48.810;9.120;2023-02-18T00:06:18;1.90;;;1.90;;
209;SDS011;90;48.810;9.120;2023-02-18T00:08:46;3.17;;;2.00;;
209;SDS011;90;48.810;9.120;2023-02-18T00:11:15;2.27;;;2.10;;
209;SDS011;90;48.810;9.120;2023-02-18T00:13:43;2.23;;;2.10;;
209;SDS011;90;48.810;9.120;2023-02-18T00:16:15;2.20;;;2.00;;
209;SDS011;90;48.810;9.120;2023-02-18T00:18:42;2.47;;;2.27;;
209;SDS011;90;48.810;9.120;2023-02-18T00:21:09;2.15;;;1.85;;
209;SDS011;90;48.810;9.120;2023-02-18T00:23:36;2.50;;;2.30;;
209;SDS011;90;48.810;9.120;2023-02-18T00:26:05;2.53;;;2.37;;
209;SDS011;90;48.810;9.120;2023-02-18T00:28:34;2.40;;;2.20;;
209;SDS011;90;48.810;9.120;2023-02-18T00:31:04;2.67;;;2.47;;
209;SDS011;90;48.810;9.120;2023-02-18T00:33:32;3.40;;;2.27;;
209;SDS011;90;48.810;9.120;2023-02-18T00:36:00;2.33;;;2.13;;
209;SDS011;90;48.810;9.120;2023-02-18T00:38:28;2.33;;;2.20;;
209;SDS011;90;48.810;9.120;2023-02-18T00:40:55;2.30;;;2.10;;
209;SDS011;90;48.810;9.120;2023-02-18T00:43:22;2.23;;;2.03;;
209;SDS011;90;48.810;9.120;2023-02-18T00:45:51;3.60;;;2.20;;
209;SDS011;90;48.810;9.120;2023-02-18T00:48:17;2.57;;;2.43;;
209;SDS011;90;48.810;9.120;2023-02-18T00:50:45;2.57;;;2.37;;
209;SDS011;90;48.810;9.120;2023-02-18T00:53:12;2.80;;;2.60;;
209;SDS011;90;48.810;9.120;2023-02-18T00:55:39;3.13;;;2.60;;
209;SDS011;90;48.810;9.120;2023-02-18T00:58:07;3.17;;;2.97;;
209;SDS011;90;48.810;9.120;2023-02-18T01:00:35;2.77;;;2.50;;
209;SDS011;90;48.810;9.120;2023-02-18T01:03:04;2.67;;;2.47;;
209;SDS011;90;48.810;9.120;2023-02-18T01:05:32;3.10;;;2.67;;
209;SDS011;90;48.810;9.120;2023-02-18T01:08:00;3.07;;;2.70;;
209;SDS011;90;48.810;9.120;2023-02-18T01:10:27;2.77;;;2.57;;
209;SDS011;90;48.810;9.120;2023-02-18T01:12:54;3.03;;;2.83;;
209;SDS011;90;48.810;9.120;2023-02-18T01:15:22;2.70;;;2.53;;
209;SDS011;90;48.810;9.120;2023-02-18T01:17:49;2.47;;;2.20;;
209;SDS011;90;48.810;9.120;2023-02-18T01:20:18;2.97;;;2.53;;
209;SDS011;90;48.810;9.120;2023-02-18T01:22:45;3.20;;;2.73;;
209;SDS011;90;48.810;9.120;2023-02-18T01:25:12;2.70;;;2.50;;
209;SDS011;90;48.810;9.120;2023-02-18T01:27:40;3.03;;;2.90;;
209;SDS011;90;48.810;9.120;2023-02-18T01:30:07;2.87;;;2.67;;
209;SDS011;90;48.810;9.120;2023-02-18T01:32:37;2.63;;;2.43;;
209;SDS011;90;48.810;9.120;2023-02-18T01:35:05;3.30;;;2.50;;
209;SDS011;90;48.810;9.120;2023-02-18T01:37:34;5.10;;;2.80;;
209;SDS011;90;48.810;9.120;2023-02-18T01:40:01;2.83;;;2.63;;
209;SDS011;90;48.810;9.120;2023-02-18T01:42:29;3.07;;;2.87;;
209;SDS011;90;48.810;9.120;2023-02-18T01:47:56;4.00;;;2.50;;
209;SDS011;90;48.810;9.120;2023-02-18T01:50:23;2.73;;;2.53;;
209;SDS011;90;48.810;9.120;2023-02-18T01:52:51;3.07;;;2.70;;
209;SDS011;90;48.810;9.120;2023-02-18T01:55:18;3.17;;;2.60;;
209;SDS011;90;48.810;9.120;2023-02-18T01:57:45;2.80;;;2.60;;
209;SDS011;90;48.810;9.120;2023-02-18T02:00:13;2.80;;;2.60;;
209;SDS011;90;48.810;9.120;2023-02-18T02:02:45;3.73;;;2.97;;
209;SDS011;90;48.810;9.120;2023-02-18T02:05:14;3.00;;;2.70;;
209;SDS011;90;48.810;9.120;2023-02-18T02:07:42;2.90;;;2.70;;
209;SDS011;90;48.810;9.120;2023-02-18T02:10:12;2.97;;;2.77;;
209;SDS011;90;48.810;9.120;2023-02-18T02:12:43;2.97;;;2.77;;
209;SDS011;90;48.810;9.120;2023-02-18T02:15:28;3.00;;;2.80;;
209;SDS011;90;48.810;9.120;2023-02-18T02:18:11;3.30;;;3.10;;
209;SDS011;90;48.810;9.120;2023-02-18T02:26:58;6.30;;;3.60;;
209;SDS011;90;48.810;9.120;2023-02-18T02:29:49;3.33;;;3.13;;
209;SDS011;90;48.810;9.120;2023-02-18T02:35:57;3.77;;;3.60;;
209;SDS011;90;48.810;9.120;2023-02-18T02:38:28;3.63;;;3.43;;
209;SDS011;90;48.810;9.120;2023-02-18T02:41:01;3.23;;;3.10;;
209;SDS011;90;48.810;9.120;2023-02-18T02:43:41;3.00;;;2.80;;
209;SDS011;90;48.810;9.120;2023-02-18T02:46:17;4.37;;;3.00;;
209;SDS011;90;48.810;9.120;2023-02-18T02:48:51;3.50;;;3.13;;
209;SDS011;90;48.810;9.120;2023-02-18T02:51:26;3.20;;;3.00;;
209;SDS011;90;48.810;9.120;2023-02-18T02:54:07;3.03;;;2.83;;
209;SDS011;90;48.810;9.120;2023-02-18T02:56:36;3.23;;;3.10;;
209;SDS011;90;48.810;9.120;2023-02-18T02:59:05;2.90;;;2.70;;
209;SDS011;90;48.810;9.120;2023-02-18T03:01:40;3.10;;;2.90;;
209;SDS011;90;48.810;9.120;2023-02-18T03:04:22;2.93;;;2.83;;
209;SDS011;90;48.810;9.120;2023-02-18T03:10:17;3.83;;;3.27;;
209;SDS011;90;48.810;9.120;2023-02-18T03:12:54;3.20;;;3.00;;
209;SDS011;90;48.810;9.120;2023-02-18T03:15:32;3.00;;;2.80;;
209;SDS011;90;48.810;9.120;2023-02-18T03:18:06;2.97;;;2.77;;
209;SDS011;90;48.810;9.120;2023-02-18T03:20:42;8.33;;;3.03;;
209;SDS011;90;48.810;9.120;2023-02-18T03:23:16;2.73;;;2.53;;
209;SDS011;90;48.810;9.120;2023-02-18T03:25:45;4.97;;;2.93;;
209;SDS011;90;48.810;9.120;2023-02-18T03:28:14;3.63;;;3.00;;
209;SDS011;90;48.810;9.120;2023-02-18T03:30:45;4.50;;;2.97;;
209;SDS011;90;48.810;9.120;2023-02-18T03:33:16;3.33;;;3.13;;
209;SDS011;90;48.810;9.120;2023-02-18T03:35:50;3.40;;;3.20;;
209;SDS011;90;48.810;9.120;2023-02-18T03:38:22;2.77;;;2.57;;
209;SDS011;90;48.810;9.120;2023-02-18T03:40:54;3.33;;;3.17;;
209;SDS011;90;48.810;9.120;2023-02-18T03:43:22;3.00;;;2.80;;
209;SDS011;90;48.810;9.120;2023-02-18T03:45:49;3.13;;;2.93;;
209;SDS011;90;48.810;9.120;2023-02-18T03:48:16;3.80;;;3.27;;
209;SDS011;90;48.810;9.120;2023-02-18T03:50:43;4.20;;;2.63;;
209;SDS011;90;48.810;9.120;2023-02-18T03:53:11;3.03;;;2.83;;
209;SDS011;90;48.810;9.120;2023-02-18T03:55:39;3.20;;;3.00;;
209;SDS011;90;48.810;9.120;2023-02-18T03:58:06;3.23;;;3.03;;
209;SDS011;90;48.810;9.120;2023-02-18T04:00:33;3.40;;;3.20;;
209;SDS011;90;48.810;9.120;2023-02-18T04:03:00;3.23;;;3.03;;
209;SDS011;90;48.810;9.120;2023-02-18T04:05:27;2.90;;;2.70;;
209;SDS011;90;48.810;9.120;2023-02-18T04:07:54;3.00;;;2.80;;
209;SDS011;90;48.810;9.120;2023-02-18T04:10:21;3.00;;;2.80;;
209;SDS011;90;48.810;9.120;2023-02-18T04:12:50;2.90;;;2.70;;
209;SDS011;90;48.810;9.120;2023-02-18T04:15:17;2.80;;;2.60;;
209;SDS011;90;48.810;9.120;2023-02-18T04:17:44;2.73;;;2.43;;
209;SDS011;90;48.810;9.120;2023-02-18T04:20:11;3.07;;;2.93;;
209;SDS011;90;48.810;9.120;2023-02-18T04:22:38;2.80;;;2.60;;
209;SDS011;90;48.810;9.120;2023-02-18T04:25:05;2.80;;;2.60;;
209;SDS011;90;48.810;9.120;2023-02-18T04:27:32;2.73;;;2.53;;
209;SDS011;90;48.810;9.120;2023-02-18T04:30:01;3.30;;;2.97;;
209;SDS011;90;48.810;9.120;2023-02-18T04:32:28;3.00;;;2.83;;
209;SDS011;90;48.810;9.120;2023-02-18T04:34:55;2.73;;;2.53;;
209;SDS011;90;48.810;9.120;2023-02-18T04:37:22;3.00;;;2.80;;
209;SDS011;90;48.810;9.120;2023-02-18T04:39:49;3.10;;;2.90;;
209;SDS011;90;48.810;9.120;2023-02-18T04:42:16;3.27;;;2.80;;
209;SDS011;90;48.810;9.120;2023-02-18T04:44:43;3.00;;;2.90;;
209;SDS011;90;48.810;9.120;2023-02-18T04:47:12;2.97;;;2.77;;
209;SDS011;90;48.810;9.120;2023-02-18T04:49:39;2.77;;;2.57;;
209;SDS011;90;48.810;9.120;2023-02-18T04:52:06;3.60;;;2.73;;
209;SDS011;90;48.810;9.120;2023-02-18T04:54:33;3.10;;;3.00;;
209;SDS011;90;48.810;9.120;2023-02-18T04:57:00;3.57;;;2.90;;
209;SDS011;90;48.810;9.120;2023-02-18T04:59:27;2.87;;;2.67;;
209;SDS011;90;48.810;9.120;2023-02-18T05:01:54;2.90;;;2.70;;
209;SDS011;90;48.810;9.120;2023-02-18T05:04:22;2.73;;;2.40;;
209;SDS011;90;48.810;9.120;2023-02-18T05:06:49;2.90;;;2.70;;
209;SDS011;90;48.810;9.120;2023-02-18T05:09:16;3.20;;;3.00;;
209;SDS011;90;48.810;9.120;2023-02-18T05:11:44;4.03;;;3.30;;
209;SDS011;90;48.810;9.120;2023-02-18T05:14:11;3.43;;;2.73;;
209;SDS011;90;48.810;9.120;2023-02-18T05:16:38;3.30;;;2.63;;
209;SDS011;90;48.810;9.120;2023-02-18T05:19:05;2.77;;;2.57;;
209;SDS011;90;48.810;9.120;2023-02-18T05:21:34;2.73;;;2.40;;
209;SDS011;90;48.810;9.120;2023-02-18T05:24:01;2.90;;;2.50;;
209;SDS011;90;48.810;9.120;2023-02-18T05:26:29;3.23;;;3.03;;
209;SDS011;90;48.810;9.120;2023-02-18T05:28:55;2.67;;;2.43;;
209;SDS011;90;48.810;9.120;2023-02-18T05:31:23;4.10;;;2.90;;
209;SDS011;90;48.810;9.120;2023-02-18T05:33:50;2.97;;;2.87;;
209;SDS011;90;48.810;9.120;2023-02-18T05:36:17;2.40;;;2.20;;
209;SDS011;90;48.810;9.120;2023-02-18T05:38:45;3.23;;;2.47;;
209;SDS011;90;48.810;9.120;2023-02-18T05:41:13;2.60;;;2.40;;
209;SDS011;90;48.810;9.120;2023-02-18T05:43:39;2.20;;;2.00;;
209;SDS011;90;48.810;9.120;2023-02-18T05:46:20;2.60;;;2.47;;
209;SDS011;90;48.810;9.120;2023-02-18T05:48:47;2.57;;;2.40;;
209;SDS011;90;48.810;9.120;2023-02-18T05:51:14;2.67;;;2.47;;
209;SDS011;90;48.810;9.120;2023-02-18T05:53:41;2.50;;;2.30;;
209;SDS011;90;48.810;9.120;2023-02-18T05:56:10;3.03;;;2.40;;
209;SDS011;90;48.810;9.120;2023-02-18T05:58:37;3.30;;;3.10;;
209;SDS011;90;48.810;9.120;2023-02-18T06:01:04;2.40;;;2.20;;
209;SDS011;90;48.810;9.120;2023-02-18T06:03:31;2.13;;;2.03;;
209;SDS011;90;48.810;9.120;2023-02-18T06:05:57;3.37;;;2.57;;
209;SDS011;90;48.810;9.120;2023-02-18T06:08:24;2.57;;;2.40;;
209;SDS011;90;48.810;9.120;2023-02-18T06:10:51;2.60;;;2.40;;
209;SDS011;90;48.810;9.120;2023-02-18T06:13:20;2.30;;;2.20;;
209;SDS011;90;48.810;9.120;2023-02-18T06:15:49;2.33;;;2.20;;
209;SDS011;90;48.810;9.120;2023-02-18T06:18:17;2.57;;;2.37;;
209;SDS011;90;48.810;9.120;2023-02-18T06:20:48;2.87;;;2.67;;
209;SDS011;90;48.810;9.120;2023-02-18T06:23:15;2.63;;;2.43;;
209;SDS011;90;48.810;9.120;2023-02-18T06:25:42;2.77;;;2.57;;
209;SDS011;90;48.810;9.120;2023-02-18T06:28:09;2.53;;;2.40;;
209;SDS011;90;48.810;9.120;2023-02-18T06:30:37;2.57;;;2.40;;
209;SDS011;90;48.810;9.120;2023-02-18T06:33:04;2.70;;;2.33;;
209;SDS011;90;48.810;9.120;2023-02-18T06:35:32;2.83;;;2.63;;
209;SDS011;90;48.810;9.120;2023-02-18T06:37:59;2.53;;;2.33;;
209;SDS011;90;48.810;9.120;2023-02-18T06:40:26;2.70;;;2.50;;
209;SDS011;90;48.810;9.120;2023-02-18T06:42:53;2.50;;;2.30;;
209;SDS011;90;48.810;9.120;2023-02-18T06:45:20;2.40;;;2.20;;
209;SDS011;90;48.810;9.120;2023-02-18T06:47:49;2.80;;;2.60;;
209;SDS011;90;48.810;9.120;2023-02-18T06:50:16;2.77;;;2.33;;
209;SDS011;90;48.810;9.120;2023-02-18T06:52:43;3.70;;;2.73;;
209;SDS011;90;48.810;9.120;2023-02-18T06:55:11;2.67;;;2.47;;
209;SDS011;90;48.810;9.120;2023-02-18T06:57:38;3.70;;;2.70;;
209;SDS011;90;48.810;9.120;2023-02-18T07:00:05;2.90;;;2.70;;
209;SDS011;90;48.810;9.120;2023-02-18T07:02:33;3.70;;;2.97;;
209;SDS011;90;48.810;9.120;2023-02-18T07:05:02;2.70;;;2.50;;
209;SDS011;90;48.810;9.120;2023-02-18T07:07:29;3.90;;;3.70;;
209;SDS011;90;48.810;9.120;2023-02-18T07:09:56;3.70;;;3.60;;
209;SDS011;90;48.810;9.120;2023-02-18T07:12:23;3.50;;;3.30;;
209;SDS011;90;48.810;9.120;2023-02-18T07:14:51;3.07;;;2.90;;
209;SDS011;90;48.810;9.120;2023-02-18T07:17:18;2.60;;;2.40;;
209;SDS011;90;48.810;9.120;2023-02-18T07:19:48;2.87;;;2.67;;
209;SDS011;90;48.810;9.120;2023-02-18T07:22:17;2.93;;;2.43;;
209;SDS011;90;48.810;9.120;2023-02-18T07:24:44;3.57;;;2.63;;
209;SDS011;90;48.810;9.120;2023-02-18T07:27:11;2.63;;;2.50;;
209;SDS011;90;48.810;9.120;2023-02-18T07:29:38;3.10;;;2.90;;
209;SDS011;90;48.810;9.120;2023-02-18T07:32:05;3.17;;;2.97;;
209;SDS011;90;48.810;9.120;2023-02-18T07:34:32;6.27;;;3.00;;
209;SDS011;90;48.810;9.120;2023-02-18T07:37:01;2.83;;;2.63;;
209;SDS011;90;48.810;9.120;2023-02-18T07:39:34;3.20;;;3.00;;
209;SDS011;90;48.810;9.120;2023-02-18T07:42:02;3.37;;;3.00;;
209;SDS011;90;48.810;9.120;2023-02-18T07:44:29;2.77;;;2.57;;
209;SDS011;90;48.810;9.120;2023-02-18T07:46:56;2.63;;;2.43;;
209;SDS011;90;48.810;9.120;2023-02-18T07:49:23;3.33;;;3.20;;
209;SDS011;90;48.810;9.120;2023-02-18T07:51:51;5.33;;;2.83;;
209;SDS011;90;48.810;9.120;2023-02-18T07:54:18;3.23;;;3.07;;
209;SDS011;90;48.810;9.120;2023-02-18T07:56:47;2.90;;;2.70;;
209;SDS011;90;48.810;9.120;2023-02-18T07:59:14;3.80;;;3.27;;
209;SDS011;90;48.810;9.120;2023-02-18T08:01:50;3.90;;;3.70;;
209;SDS011;90;48.810;9.120;2023-02-18T08:04:20;2.80;;;2.60;;
209;SDS011;90;48.810;9.120;2023-02-18T08:06:47;3.90;;;2.90;;
209;SDS011;90;48.810;9.120;2023-02-18T08:09:15;3.27;;;3.07;;
209;SDS011;90;48.810;9.120;2023-02-18T08:11:47;3.67;;;3.50;;
209;SDS011;90;48.810;9.120;2023-02-18T08:14:19;3.60;;;3.17;;
209;SDS011;90;48.810;9.120;2023-02-18T08:16:47;3.90;;;3.70;;
209;SDS011;90;48.810;9.120;2023-02-18T08:19:14;3.23;;;2.77;;
209;SDS011;90;48.810;9.120;2023-02-18T08:21:41;2.70;;;2.50;;
209;SDS011;90;48.810;9.120;2023-02-18T08:24:08;3.43;;;2.87;;
209;SDS011;90;48.810;9.120;2023-02-18T08:26:35;4.37;;;2.97;;
209;SDS011;90;48.810;9.120;2023-02-18T08:29:04;2.77;;;2.60;;
209;SDS011;90;48.810;9.120;2023-02-18T08:31:31;3.13;;;2.93;;
209;SDS011;90;48.810;9.120;2023-02-18T08:34:00;2.70;;;2.50;;
209;SDS011;90;48.810;9.120;2023-02-18T08:36:28;3.90;;;3.03;;
209;SDS011;90;48.810;9.120;2023-02-18T08:38:57;2.90;;;2.50;;
209;SDS011;90;48.810;9.120;2023-02-18T08:41:25;3.23;;;3.10;;
209;SDS011;90;48.810;9.120;2023-02-18T08:44:04;2.80;;;2.60;;
209;SDS011;90;48.810;9.120;2023-02-18T08:46:37;2.63;;;2.43;;
209;SDS011;90;48.810;9.120;2023-02-18T08:49:09;3.10;;;2.90;;
209;SDS011;90;48.810;9.120;2023-02-18T08:51:48;2.60;;;2.40;;
209;SDS011;90;48.810;9.120;2023-02-18T08:54:15;2.93;;;2.73;;
209;SDS011;90;48.810;9.120;2023-02-18T08:56:43;2.90;;;2.70;;
209;SDS011;90;48.810;9.120;2023-02-18T08:59:11;2.57;;;2.37;;
209;SDS011;90;48.810;9.120;2023-02-18T09:01:38;2.80;;;2.60;;
209;SDS011;90;48.810;9.120;2023-02-18T09:04:05;3.00;;;2.80;;
209;SDS011;90;48.810;9.120;2023-02-18T09:06:35;2.72;;;2.38;;
209;SDS011;90;48.810;9.120;2023-02-18T09:09:06;4.63;;;2.20;;
209;SDS011;90;48.810;9.120;2023-02-18T09:11:34;2.60;;;2.40;;
209;SDS011;90;48.810;9.120;2023-02-18T09:14:01;2.50;;;2.20;;
209;SDS011;90;48.810;9.120;2023-02-18T09:16:30;2.50;;;2.30;;
209;SDS011;90;48.810;9.120;2023-02-18T09:18:57;3.33;;;2.10;;
209;SDS011;90;48.810;9.120;2023-02-18T09:21:24;3.70;;;2.60;;
209;SDS011;90;48.810;9.120;2023-02-18T09:23:52;3.83;;;2.47;;
209;SDS011;90;48.810;9.120;2023-02-18T09:26:19;2.43;;;2.30;;
209;SDS011;90;48.810;9.120;2023-02-18T09:28:47;2.90;;;2.70;;
209;SDS011;90;48.810;9.120;2023-02-18T09:31:16;4.77;;;2.10;;
209;SDS011;90;48.810;9.120;2023-02-18T09:33:47;2.90;;;2.60;;
209;SDS011;90;48.810;9.120;2023-02-18T09:36:16;4.10;;;2.83;;
209;SDS011;90;48.810;9.120;2023-02-18T09:38:45;2.33;;;2.00;;
209;SDS011;90;48.810;9.120;2023-02-18T09:41:14;3.60;;;2.30;;
209;SDS011;90;48.810;9.120;2023-02-18T09:43:50;2.83;;;2.17;;
209;SDS011;90;48.810;9.120;2023-02-18T09:46:22;2.60;;;2.30;;
209;SDS011;90;48.810;9.120;2023-02-18T09:48:55;2.90;;;2.30;;
209;SDS011;90;48.810;9.120;2023-02-18T09:51:22;2.23;;;2.13;;
209;SDS011;90;48.810;9.120;2023-02-18T09:53:49;2.30;;;2.20;;
209;SDS011;90;48.810;9.120;2023-02-18T09:56:18;2.57;;;2.37;;
209;SDS011;90;48.810;9.120;2023-02-18T09:58:48;3.37;;;2.17;;
209;SDS011;90;48.810;9.120;2023-02-18T10:01:19;2.57;;;2.30;;
209;SDS011;90;48.810;9.120;2023-02-18T10:03:55;2.50;;;2.37;;
209;SDS011;90;48.810;9.120;2023-02-18T10:06:25;2.47;;;2.20;;
209;SDS011;90;48.810;9.120;2023-02-18T10:08:55;5.10;;;2.60;;
209;SDS011;90;48.810;9.120;2023-02-18T10:11:29;4.17;;;2.43;;
209;SDS011;90;48.810;9.120;2023-02-18T10:14:08;2.73;;;2.50;;
209;SDS011;90;48.810;9.120;2023-02-18T10:16:37;3.33;;;2.63;;
209;SDS011;90;48.810;9.120;2023-02-18T10:19:11;2.73;;;2.53;;
209;SDS011;90;48.810;9.120;2023-02-18T10:21:46;3.63;;;2.40;;
209;SDS011;90;48.810;9.120;2023-02-18T10:24:18;2.83;;;2.40;;
209;SDS011;90;48.810;9.120;2023-02-18T10:26:53;3.20;;;2.03;;
209;SDS011;90;48.810;9.120;2023-02-18T10:29:21;2.47;;;2.27;;
209;SDS011;90;48.810;9.120;2023-02-18T10:31:51;3.90;;;2.50;;
209;SDS011;90;48.810;9.120;2023-02-18T10:34:37;3.67;;;2.20;;
209;SDS011;90;48.810;9.120;2023-02-18T10:37:10;4.73;;;2.40;;
209;SDS011;90;48.810;9.120;2023-02-18T10:39:54;4.10;;;2.30;;
209;SDS011;90;48.810;9.120;2023-02-18T10:42:35;2.30;;;2.10;;
209;SDS011;90;48.810;9.120;2023-02-18T10:45:12;3.70;;;2.27;;
209;SDS011;90;48.810;9.120;2023-02-18T10:47:47;2.60;;;2.10;;
209;SDS011;90;48.810;9.120;2023-02-18T10:50:26;4.37;;;2.23;;
209;SDS011;90;48.810;9.120;2023-02-18T10:52:58;2.80;;;2.57;;
209;SDS011;90;48.810;9.120;2023-02-18T10:55:42;3.53;;;2.43;;
209;SDS011;90;48.810;9.120;2023-02-18T10:58:23;2.10;;;2.00;;
209;SDS011;90;48.810;9.120;2023-02-18T11:00:52;3.70;;;2.40;;
209;SDS011;90;48.810;9.120;2023-02-18T11:03:20;3.47;;;2.40;;
209;SDS011;90;48.810;9.120;2023-02-18T11:05:51;3.07;;;2.10;;
209;SDS011;90;48.810;9.120;2023-02-18T11:08:21;2.10;;;1.90;;
209;SDS011;90;48.810;9.120;2023-02-18T11:10:52;4.00;;;2.27;;
209;SDS011;90;48.810;9.120;2023-02-18T11:13:23;2.40;;;2.20;;
209;SDS011;90;48.810;9.120;2023-02-18T11:15:53;2.83;;;2.13;;
209;SDS011;90;48.810;9.120;2023-02-18T11:18:29;3.60;;;1.90;;
209;SDS011;90;48.810;9.120;2023-02-18T11:21:04;2.87;;;2.07;;
209;SDS011;90;48.810;9.120;2023-02-18T11:23:44;2.30;;;2.10;;
209;SDS011;90;48.810;9.120;2023-02-18T11:26:14;2.40;;;2.10;;
209;SDS011;90;48.810;9.120;2023-02-18T11:28:43;2.40;;;2.20;;
209;SDS011;90;48.810;9.120;2023-02-18T11:31:18;2.50;;;2.30;;
209;SDS011;90;48.810;9.120;2023-02-18T11:33:48;3.20;;;2.63;;
209;SDS011;90;48.810;9.120;2023-02-18T11:36:24;2.67;;;2.50;;
209;SDS011;90;48.810;9.120;2023-02-18T11:38:55;2.27;;;2.13;;
209;SDS011;90;48.810;9.120;2023-02-18T11:41:31;4.10;;;2.47;;
209;SDS011;90;48.810;9.120;2023-02-18T11:44:00;3.53;;;2.23;;
209;SDS011;90;48.810;9.120;2023-02-18T11:46:31;2.47;;;1.97;;
209;SDS011;90;48.810;9.120;2023-02-18T11:49:09;3.00;;;2.10;;
209;SDS011;90;48.810;9.120;2023-02-18T11:51:47;2.63;;;2.43;;
209;SDS011;90;48.810;9.120;2023-02-18T11:54:22;2.47;;;2.37;;
209;SDS011;90;48.810;9.120;2023-02-18T11:56:56;5.27;;;3.00;;
209;SDS011;90;48.810;9.120;2023-02-18T11:59:25;3.60;;;2.27;;
209;SDS011;90;48.810;9.120;2023-02-18T12:01:56;3.07;;;2.40;;
209;SDS011;90;48.810;9.120;2023-02-18T12:04:27;2.63;;;2.43;;
209;SDS011;90;48.810;9.120;2023-02-18T12:07:04;2.10;;;2.00;;
209;SDS011;90;48.810;9.120;2023-02-18T12:09:41;2.40;;;2.10;;
209;SDS011;90;48.810;9.120;2023-02-18T12:12:13;2.43;;;2.27;;
209;SDS011;90;48.810;9.120;2023-02-18T12:14:44;3.20;;;2.47;;
209;SDS011;90;48.810;9.120;2023-02-18T12:17:15;3.13;;;2.30;;
209;SDS011;90;48.810;9.120;2023-02-18T12:20:05;2.33;;;2.13;;
209;SDS011;90;48.810;9.120;2023-02-18T12:22:47;4.13;;;2.80;;
209;SDS011;90;48.810;9.120;2023-02-18T12:25:28;2.70;;;2.50;;
209;SDS011;90;48.810;9.120;2023-02-18T12:28:08;2.77;;;2.60;;
209;SDS011;90;48.810;9.120;2023-02-18T12:30:58;2.50;;;2.40;;
209;SDS011;90;48.810;9.120;2023-02-18T12:33:41;3.07;;;2.53;;
209;SDS011;90;48.810;9.120;2023-02-18T12:36:34;3.10;;;2.90;;
209;SDS011;90;48.810;9.120;2023-02-18T12:39:18;3.27;;;2.80;;
209;SDS011;90;48.810;9.120;2023-02-18T12:42:07;4.23;;;2.80;;
209;SDS011;90;48.810;9.120;2023-02-18T12:44:55;3.30;;;2.80;;
209;SDS011;90;48.810;9.120;2023-02-18T12:47:41;3.00;;;2.80;;
209;SDS011;90;48.810;9.120;2023-02-18T12:53:17;4.00;;;3.27;;
209;SDS011;90;48.810;9.120;2023-02-18T12:56:02;2.97;;;2.77;;
209;SDS011;90;48.810;9.120;2023-02-18T12:58:52;3.20;;;2.87;;
209;SDS011;90;48.810;9.120;2023-02-18T13:01:34;7.03;;;3.27;;
209;SDS011;90;48.810;9.120;2023-02-18T13:04:17;5.10;;;3.70;;
209;SDS011;90;48.810;9.120;2023-02-18T13:07:02;4.10;;;3.40;;
209;SDS011;90;48.810;9.120;2023-02-18T13:13:00;3.67;;;3.03;;
209;SDS011;90;48.810;9.120;2023-02-18T13:15:35;5.50;;;3.50;;
209;SDS011;90;48.810;9.120;2023-02-18T13:18:07;4.43;;;3.90;;
209;SDS011;90;48.810;9.120;2023-02-18T13:20:38;3.57;;;3.37;;
209;SDS011;90;48.810;9.120;2023-02-18T13:23:09;3.53;;;3.33;;
209;SDS011;90;48.810;9.120;2023-02-18T13:25:45;8.30;;;2.90;;
209;SDS011;90;48.810;9.120;2023-02-18T13:28:17;5.30;;;3.67;;
209;SDS011;90;48.810;9.120;2023-02-18T13:30:49;3.90;;;3.30;;
209;SDS011;90;48.810;9.120;2023-02-18T13:33:24;3.40;;;3.20;;
209;SDS011;90;48.810;9.120;2023-02-18T13:35:59;3.70;;;3.50;;
209;SDS011;90;48.810;9.120;2023-02-18T13:38:43;3.53;;;3.33;;
209;SDS011;90;48.810;9.120;2023-02-18T13:41:19;3.80;;;3.60;;
209;SDS011;90;48.810;9.120;2023-02-18T13:43:55;3.47;;;3.27;;
209;SDS011;90;48.810;9.120;2023-02-18T13:46:25;3.70;;;3.13;;
209;SDS011;90;48.810;9.120;2023-02-18T13:48:53;3.60;;;3.40;;
209;SDS011;90;48.810;9.120;2023-02-18T13:51:30;4.30;;;3.37;;
209;SDS011;90;48.810;9.120;2023-02-18T13:54:08;3.15;;;3.00;;
209;SDS011;90;48.810;9.120;2023-02-18T13:56:44;3.07;;;2.87;;
209;SDS011;90;48.810;9.120;2023-02-18T13:59:17;3.30;;;3.10;;
209;SDS011;90;48.810;9.120;2023-02-18T14:01:49;4.70;;;3.50;;
209;SDS011;90;48.810;9.120;2023-02-18T14:04:36;4.50;;;3.47;;
209;SDS011;90;48.810;9.120;2023-02-18T14:07:16;3.20;;;3.00;;
209;SDS011;90;48.810;9.120;2023-02-18T14:09:51;3.80;;;3.60;;
209;SDS011;90;48.810;9.120;2023-02-18T14:18:23;3.33;;;3.03;;
209;SDS011;90;48.810;9.120;2023-02-18T14:20:57;3.57;;;3.43;;
209;SDS011;90;48.810;9.120;2023-02-18T14:23:48;3.50;;;3.30;;
209;SDS011;90;48.810;9.120;2023-02-18T14:26:23;4.07;;;3.13;;
209;SDS011;90;48.810;9.120;2023-02-18T14:28:55;4.20;;;3.10;;
209;SDS011;90;48.810;9.120;2023-02-18T14:40:54;3.53;;;3.40;;
209;SDS011;90;48.810;9.120;2023-02-18T14:46:27;3.40;;;3.23;;
209;SDS011;90;48.810;9.120;2023-02-18T14:49:12;3.40;;;3.20;;
209;SDS011;90;48.810;9.120;2023-02-18T14:52:11;3.40;;;2.90;;
209;SDS011;90;48.810;9.120;2023-02-18T14:54:43;3.37;;;3.17;;
209;SDS011;90;48.810;9.120;2023-02-18T14:57:14;3.70;;;3.50;;
209;SDS011;90;48.810;9.120;2023-02-18T14:59:44;6.23;;;3.23;;
209;SDS011;90;48.810;9.120;2023-02-18T15:02:14;3.40;;;3.20;;
209;SDS011;90;48.810;9.120;2023-02-18T15:05:04;3.57;;;2.80;;
209;SDS011;90;48.810;9.120;2023-02-18T15:07:37;3.30;;;3.10;;
209;SDS011;90;48.810;9.120;2023-02-18T15:10:10;4.33;;;3.40;;
209;SDS011;90;48.810;9.120;2023-02-18T15:12:41;2.97;;;2.77;;
209;SDS011;90;48.810;9.120;2023-02-18T15:15:09;6.80;;;3.13;;
209;SDS011;90;48.810;9.120;2023-02-18T15:17:43;3.73;;;3.57;;
209;SDS011;90;48.810;9.120;2023-02-18T15:20:13;4.63;;;3.63;;
209;SDS011;90;48.810;9.120;2023-02-18T15:22:42;4.07;;;3.10;;
209;SDS011;90;48.810;9.120;2023-02-18T15:25:10;3.37;;;3.17;;
209;SDS011;90;48.810;9.120;2023-02-18T15:27:39;3.43;;;3.30;;
209;SDS011;90;48.810;9.120;2023-02-18T15:30:20;3.13;;;2.97;;
209;SDS011;90;48.810;9.120;2023-02-18T15:32:55;4.87;;;3.33;;
209;SDS011;90;48.810;9.120;2023-02-18T15:35:25;3.63;;;3.10;;
209;SDS011;90;48.810;9.120;2023-02-18T15:37:56;3.70;;;3.50;;
209;SDS011;90;48.810;9.120;2023-02-18T15:40:30;3.07;;;2.87;;
209;SDS011;90;48.810;9.120;2023-02-18T15:43:03;4.90;;;3.50;;
209;SDS011;90;48.810;9.120;2023-02-18T15:45:31;4.53;;;3.53;;
209;SDS011;90;48.810;9.120;2023-02-18T15:48:00;4.07;;;3.50;;
209;SDS011;90;48.810;9.120;2023-02-18T15:50:29;3.53;;;3.37;;
209;SDS011;90;48.810;9.120;2023-02-18T15:53:03;9.20;;;3.20;;
209;SDS011;90;48.810;9.120;2023-02-18T15:55:33;3.67;;;3.47;;
209;SDS011;90;48.810;9.120;2023-02-18T15:58:04;4.07;;;3.90;;
209;SDS011;90;48.810;9.120;2023-02-18T16:00:38;5.43;;;3.90;;
209;SDS011;90;48.810;9.120;2023-02-18T16:03:14;3.50;;;3.30;;
209;SDS011;90;48.810;9.120;2023-02-18T16:05:45;4.30;;;3.93;;
209;SDS011;90;48.810;9.120;2023-02-18T16:08:13;3.80;;;3.33;;
209;SDS011;90;48.810;9.120;2023-02-18T16:10:46;4.67;;;4.37;;
209;SDS011;90;48.810;9.120;2023-02-18T16:13:22;4.30;;;4.00;;
209;SDS011;90;48.810;9.120;2023-02-18T16:15:50;3.63;;;3.47;;
209;SDS011;90;48.810;9.120;2023-02-18T16:18:26;4.28;;;3.80;;
209;SDS011;90;48.810;9.120;2023-02-18T16:20:56;3.43;;;3.13;;
209;SDS011;90;48.810;9.120;2023-02-18T16:23:28;4.37;;;3.67;;
209;SDS011;90;48.810;9.120;2023-02-18T16:26:07;4.53;;;3.07;;
209;SDS011;90;48.810;9.120;2023-02-18T16:28:48;4.50;;;3.50;;
209;SDS011;90;48.810;9.120;2023-02-18T16:31:17;4.60;;;3.40;;
209;SDS011;90;48.810;9.120;2023-02-18T16:33:45;5.27;;;3.87;;
209;SDS011;90;48.810;9.120;2023-02-18T16:36:13;4.33;;;3.17;;
209;SDS011;90;48.810;9.120;2023-02-18T16:38:42;4.67;;;3.70;;
209;SDS011;90;48.810;9.120;2023-02-18T16:41:10;5.67;;;3.60;;
209;SDS011;90;48.810;9.120;2023-02-18T16:43:38;3.63;;;3.40;;
209;SDS011;90;48.810;9.120;2023-02-18T16:46:08;3.70;;;3.50;;
209;SDS011;90;48.810;9.120;2023-02-18T16:48:39;3.57;;;3.37;;
209;SDS011;90;48.810;9.120;2023-02-18T16:51:08;3.83;;;3.30;;
209;SDS011;90;48.810;9.120;2023-02-18T16:53:39;3.60;;;3.40;;
209;SDS011;90;48.810;9.120;2023-02-18T16:56:10;3.80;;;3.60;;
209;SDS011;90;48.810;9.120;2023-02-18T16:58:39;5.37;;;4.07;;
209;SDS011;90;48.810;9.120;2023-02-18T17:01:08;4.77;;;4.53;;
209;SDS011;90;48.810;9.120;2023-02-18T17:03:46;4.70;;;4.40;;
209;SDS011;90;48.810;9.120;2023-02-18T17:06:13;5.67;;;5.40;;
209;SDS011;90;48.810;9.120;2023-02-18T17:08:40;13.90;;;8.97;;